Terminal Aerodrome Forecast
Issued by NWS

Home | Current Version | Previous Version | Text Only | Print | Product List | Glossary On
Versions: 1 2 3 4 5 6 7 8 9 10 11 12 13 14 15 16
829
FTUS43 KGRR 250540
TAFLAN
TAF
KLAN 250540Z 2506/2606 22005KT 6SM BR SCT045
     FM251000 24005KT 6SM -SHRA VCTS SCT035CB BKN060
     FM251300 24006KT 4SM -SHRA BR VCTS OVC025CB
     FM252200 27008KT P6SM SCT200=

USA.gov is the U.S. government's official web portal to all federal, state and local government web resources and services.